sensor_id;sensor_type;location;lat;lon;timestamp;temperature;humidity
60242;SHT30;46103;52.076;113.488;2023-11-21T00:00:57;-6.47;52.21
60242;SHT30;46103;52.076;113.488;2023-11-21T00:04:17;-6.50;52.36
60242;SHT30;46103;52.076;113.488;2023-11-21T00:07:25;-6.53;52.36
60242;SHT30;46103;52.076;113.488;2023-11-21T00:10:40;-6.56;52.58
60242;SHT30;46103;52.076;113.488;2023-11-21T00:13:48;-6.57;52.64
60242;SHT30;46103;52.076;113.488;2023-11-21T00:17:06;-6.53;52.52
60242;SHT30;46103;52.076;113.488;2023-11-21T00:20:17;-6.52;52.38
60242;SHT30;46103;52.076;113.488;2023-11-21T00:23:28;-6.45;52.06
60242;SHT30;46103;52.076;113.488;2023-11-21T00:26:41;-6.40;51.98
60242;SHT30;46103;52.076;113.488;2023-11-21T00:29:51;-6.36;51.76
60242;SHT30;46103;52.076;113.488;2023-11-21T00:33:02;-6.38;51.56
60242;SHT30;46103;52.076;113.488;2023-11-21T00:36:15;-6.35;51.43
60242;SHT30;46103;52.076;113.488;2023-11-21T00:39:37;-6.33;51.42
60242;SHT30;46103;52.076;113.488;2023-11-21T00:42:48;-6.26;51.20
60242;SHT30;46103;52.076;113.488;2023-11-21T00:46:04;-6.22;51.19
60242;SHT30;46103;52.076;113.488;2023-11-21T00:49:17;-6.18;50.76
60242;SHT30;46103;52.076;113.488;2023-11-21T00:52:38;-6.09;50.86
60242;SHT30;46103;52.076;113.488;2023-11-21T00:55:58;-6.05;50.77
60242;SHT30;46103;52.076;113.488;2023-11-21T00:59:12;-6.00;50.77
60242;SHT30;46103;52.076;113.488;2023-11-21T01:02:25;-5.94;50.48
60242;SHT30;46103;52.076;113.488;2023-11-21T01:05:44;-5.93;50.48
60242;SHT30;46103;52.076;113.488;2023-11-21T01:09:22;-5.81;50.21
60242;SHT30;46103;52.076;113.488;2023-11-21T01:13:22;-5.74;50.03
60242;SHT30;46103;52.076;113.488;2023-11-21T01:16:42;-5.76;50.03
60242;SHT30;46103;52.076;113.488;2023-11-21T01:20:01;-5.66;50.00
60242;SHT30;46103;52.076;113.488;2023-11-21T01:23:24;-5.39;49.97
60242;SHT30;46103;52.076;113.488;2023-11-21T01:26:38;-5.11;49.42
60242;SHT30;46103;52.076;113.488;2023-11-21T01:29:48;-4.91;49.11
60242;SHT30;46103;52.076;113.488;2023-11-21T01:33:04;-4.79;48.23
60242;SHT30;46103;52.076;113.488;2023-11-21T01:36:15;-4.76;48.07
60242;SHT30;46103;52.076;113.488;2023-11-21T01:39:27;-4.66;47.31
60242;SHT30;46103;52.076;113.488;2023-11-21T01:42:39;-4.44;47.49
60242;SHT30;46103;52.076;113.488;2023-11-21T01:45:52;-4.17;46.96
60242;SHT30;46103;52.076;113.488;2023-11-21T01:49:04;-4.01;46.05
60242;SHT30;46103;52.076;113.488;2023-11-21T01:52:18;-4.05;45.44
60242;SHT30;46103;52.076;113.488;2023-11-21T01:55:28;-4.08;45.82
60242;SHT30;46103;52.076;113.488;2023-11-21T01:58:39;-4.15;45.89
60242;SHT30;46103;52.076;113.488;2023-11-21T02:01:54;-4.14;46.06
60242;SHT30;46103;52.076;113.488;2023-11-21T02:05:14;-4.00;45.80
60242;SHT30;46103;52.076;113.488;2023-11-21T02:08:28;-3.83;45.82
60242;SHT30;46103;52.076;113.488;2023-11-21T02:11:48;-3.63;45.26
60242;SHT30;46103;52.076;113.488;2023-11-21T02:15:08;-3.43;45.07
60242;SHT30;46103;52.076;113.488;2023-11-21T02:18:23;-3.07;44.72
60242;SHT30;46103;52.076;113.488;2023-11-21T02:21:33;-2.84;44.08
60242;SHT30;46103;52.076;113.488;2023-11-21T02:24:46;-2.53;44.02
60242;SHT30;46103;52.076;113.488;2023-11-21T02:27:58;-2.48;43.44
60242;SHT30;46103;52.076;113.488;2023-11-21T02:31:09;-2.48;43.34
60242;SHT30;46103;52.076;113.488;2023-11-21T02:34:29;-2.49;43.11
60242;SHT30;46103;52.076;113.488;2023-11-21T02:37:40;-2.46;43.36
60242;SHT30;46103;52.076;113.488;2023-11-21T02:40:50;-2.87;42.86
60242;SHT30;46103;52.076;113.488;2023-11-21T02:44:25;-3.21;42.90
60242;SHT30;46103;52.076;113.488;2023-11-21T02:47:35;-3.03;43.01
60242;SHT30;46103;52.076;113.488;2023-11-21T02:50:46;-3.07;42.91
60242;SHT30;46103;52.076;113.488;2023-11-21T02:53:57;-3.04;43.05
60242;SHT30;46103;52.076;113.488;2023-11-21T02:57:18;-3.05;42.92
60242;SHT30;46103;52.076;113.488;2023-11-21T03:00:32;-2.90;42.34
60242;SHT30;46103;52.076;113.488;2023-11-21T03:03:42;-2.74;41.86
60242;SHT30;46103;52.076;113.488;2023-11-21T03:06:53;-2.60;41.92
60242;SHT30;46103;52.076;113.488;2023-11-21T03:10:05;-2.52;41.49
60242;SHT30;46103;52.076;113.488;2023-11-21T03:13:19;-2.48;41.55
60242;SHT30;46103;52.076;113.488;2023-11-21T03:16:29;-2.60;41.82
60242;SHT30;46103;52.076;113.488;2023-11-21T03:19:40;-2.48;41.48
60242;SHT30;46103;52.076;113.488;2023-11-21T03:22:54;-2.45;41.65
60242;SHT30;46103;52.076;113.488;2023-11-21T03:26:05;-2.45;41.15
60242;SHT30;46103;52.076;113.488;2023-11-21T03:29:16;-2.32;41.03
60242;SHT30;46103;52.076;113.488;2023-11-21T03:32:27;-2.18;40.33
60242;SHT30;46103;52.076;113.488;2023-11-21T03:35:38;-1.93;40.04
60242;SHT30;46103;52.076;113.488;2023-11-21T03:38:51;-2.14;39.99
60242;SHT30;46103;52.076;113.488;2023-11-21T03:42:01;-1.97;40.13
60242;SHT30;46103;52.076;113.488;2023-11-21T03:45:12;-1.91;39.82
60242;SHT30;46103;52.076;113.488;2023-11-21T03:48:22;-1.69;39.45
60242;SHT30;46103;52.076;113.488;2023-11-21T03:51:34;-1.49;39.52
60242;SHT30;46103;52.076;113.488;2023-11-21T03:54:44;-1.55;38.67
60242;SHT30;46103;52.076;113.488;2023-11-21T03:57:54;-1.56;38.42
60242;SHT30;46103;52.076;113.488;2023-11-21T04:01:04;-1.74;38.85
60242;SHT30;46103;52.076;113.488;2023-11-21T04:04:15;-1.76;39.47
60242;SHT30;46103;52.076;113.488;2023-11-21T04:07:27;-1.67;39.07
60242;SHT30;46103;52.076;113.488;2023-11-21T04:10:40;-1.79;37.45
60242;SHT30;46103;52.076;113.488;2023-11-21T04:13:50;-1.67;37.56
60242;SHT30;46103;52.076;113.488;2023-11-21T04:17:01;-1.45;37.78
60242;SHT30;46103;52.076;113.488;2023-11-21T04:20:12;-1.31;36.72
60242;SHT30;46103;52.076;113.488;2023-11-21T04:23:21;-1.01;36.47
60242;SHT30;46103;52.076;113.488;2023-11-21T04:26:31;-0.83;36.89
60242;SHT30;46103;52.076;113.488;2023-11-21T04:29:40;-0.38;36.19
60242;SHT30;46103;52.076;113.488;2023-11-21T04:32:51;-0.04;35.29
60242;SHT30;46103;52.076;113.488;2023-11-21T04:36:01;0.21;34.97
60242;SHT30;46103;52.076;113.488;2023-11-21T04:39:08;0.30;34.59
60242;SHT30;46103;52.076;113.488;2023-11-21T04:42:18;0.57;34.05
60242;SHT30;46103;52.076;113.488;2023-11-21T04:45:28;0.79;33.90
60242;SHT30;46103;52.076;113.488;2023-11-21T04:48:38;1.03;33.36
60242;SHT30;46103;52.076;113.488;2023-11-21T04:51:46;1.17;33.04
60242;SHT30;46103;52.076;113.488;2023-11-21T04:54:55;1.29;32.80
60242;SHT30;46103;52.076;113.488;2023-11-21T04:58:05;1.44;32.76
60242;SHT30;46103;52.076;113.488;2023-11-21T05:01:16;1.48;32.64
60242;SHT30;46103;52.076;113.488;2023-11-21T05:04:24;1.60;32.43
60242;SHT30;46103;52.076;113.488;2023-11-21T05:07:34;1.17;31.50
60242;SHT30;46103;52.076;113.488;2023-11-21T05:10:44;0.64;32.40
60242;SHT30;46103;52.076;113.488;2023-11-21T05:13:58;0.10;33.02
60242;SHT30;46103;52.076;113.488;2023-11-21T05:17:08;-0.25;33.17
60242;SHT30;46103;52.076;113.488;2023-11-21T05:20:19;-0.25;33.08
60242;SHT30;46103;52.076;113.488;2023-11-21T05:23:29;-0.42;33.15
60242;SHT30;46103;52.076;113.488;2023-11-21T05:26:39;-0.52;33.88
60242;SHT30;46103;52.076;113.488;2023-11-21T05:29:48;-0.49;33.49
60242;SHT30;46103;52.076;113.488;2023-11-21T05:32:57;-0.50;36.45
60242;SHT30;46103;52.076;113.488;2023-11-21T05:36:07;-0.42;37.24
60242;SHT30;46103;52.076;113.488;2023-11-21T05:39:17;-0.32;37.43
60242;SHT30;46103;52.076;113.488;2023-11-21T05:42:28;-0.46;38.46
60242;SHT30;46103;52.076;113.488;2023-11-21T05:45:39;-0.52;38.33
60242;SHT30;46103;52.076;113.488;2023-11-21T05:48:49;-0.60;38.40
60242;SHT30;46103;52.076;113.488;2023-11-21T05:51:58;-0.53;38.86
60242;SHT30;46103;52.076;113.488;2023-11-21T05:55:08;-0.59;38.17
60242;SHT30;46103;52.076;113.488;2023-11-21T05:58:18;-0.73;38.56
60242;SHT30;46103;52.076;113.488;2023-11-21T06:01:28;-0.59;38.24
60242;SHT30;46103;52.076;113.488;2023-11-21T06:04:37;-0.50;37.68
60242;SHT30;46103;52.076;113.488;2023-11-21T06:07:47;-0.62;37.73
60242;SHT30;46103;52.076;113.488;2023-11-21T06:10:56;-0.63;35.38
60242;SHT30;46103;52.076;113.488;2023-11-21T06:14:06;-0.69;37.29
60242;SHT30;46103;52.076;113.488;2023-11-21T06:17:17;-0.65;36.33
60242;SHT30;46103;52.076;113.488;2023-11-21T06:20:25;-0.69;37.29
60242;SHT30;46103;52.076;113.488;2023-11-21T06:23:34;-0.83;36.67
60242;SHT30;46103;52.076;113.488;2023-11-21T06:26:44;-0.91;36.35
60242;SHT30;46103;52.076;113.488;2023-11-21T06:29:57;-0.88;35.67
60242;SHT30;46103;52.076;113.488;2023-11-21T06:33:07;-0.81;35.21
60242;SHT30;46103;52.076;113.488;2023-11-21T06:36:17;-0.93;34.06
60242;SHT30;46103;52.076;113.488;2023-11-21T06:39:27;-1.03;33.97
60242;SHT30;46103;52.076;113.488;2023-11-21T06:42:37;-1.01;34.49
60242;SHT30;46103;52.076;113.488;2023-11-21T06:45:47;-1.07;34.15
60242;SHT30;46103;52.076;113.488;2023-11-21T06:48:57;-1.08;33.86
60242;SHT30;46103;52.076;113.488;2023-11-21T06:52:16;-1.08;34.00
60242;SHT30;46103;52.076;113.488;2023-11-21T06:55:29;-0.97;34.02
60242;SHT30;46103;52.076;113.488;2023-11-21T06:58:40;-1.01;33.41
60242;SHT30;46103;52.076;113.488;2023-11-21T07:01:51;-1.15;33.63
60242;SHT30;46103;52.076;113.488;2023-11-21T07:05:01;-1.16;33.60
60242;SHT30;46103;52.076;113.488;2023-11-21T07:08:10;-1.19;33.40
60242;SHT30;46103;52.076;113.488;2023-11-21T07:11:20;-1.16;34.03
60242;SHT30;46103;52.076;113.488;2023-11-21T07:14:32;-1.22;34.23
60242;SHT30;46103;52.076;113.488;2023-11-21T07:17:41;-1.42;33.78
60242;SHT30;46103;52.076;113.488;2023-11-21T07:20:52;-1.56;34.44
60242;SHT30;46103;52.076;113.488;2023-11-21T07:24:03;-1.53;34.54
60242;SHT30;46103;52.076;113.488;2023-11-21T07:27:15;-1.55;34.81
60242;SHT30;46103;52.076;113.488;2023-11-21T07:30:24;-1.56;34.73
60242;SHT30;46103;52.076;113.488;2023-11-21T07:33:33;-1.59;34.60
60242;SHT30;46103;52.076;113.488;2023-11-21T07:36:37;-1.64;34.87
60242;SHT30;46103;52.076;113.488;2023-11-21T07:39:41;-1.74;34.98
60242;SHT30;46103;52.076;113.488;2023-11-21T07:42:46;-1.80;35.37
60242;SHT30;46103;52.076;113.488;2023-11-21T07:45:51;-1.80;35.35
60242;SHT30;46103;52.076;113.488;2023-11-21T07:48:55;-1.77;35.27
60242;SHT30;46103;52.076;113.488;2023-11-21T07:52:00;-1.79;35.89
60242;SHT30;46103;52.076;113.488;2023-11-21T07:55:05;-1.77;35.86
60242;SHT30;46103;52.076;113.488;2023-11-21T07:58:10;-1.73;35.45
60242;SHT30;46103;52.076;113.488;2023-11-21T08:01:16;-1.80;35.59
60242;SHT30;46103;52.076;113.488;2023-11-21T08:04:21;-1.90;35.81
60242;SHT30;46103;52.076;113.488;2023-11-21T08:07:25;-1.95;35.81
60242;SHT30;46103;52.076;113.488;2023-11-21T08:10:30;-1.97;36.43
60242;SHT30;46103;52.076;113.488;2023-11-21T08:13:33;-2.02;36.35
60242;SHT30;46103;52.076;113.488;2023-11-21T08:16:38;-2.09;36.03
60242;SHT30;46103;52.076;113.488;2023-11-21T08:19:42;-2.22;36.18
60242;SHT30;46103;52.076;113.488;2023-11-21T08:22:46;-2.25;36.62
60242;SHT30;46103;52.076;113.488;2023-11-21T08:25:53;-2.36;36.57
60242;SHT30;46103;52.076;113.488;2023-11-21T08:28:57;-2.38;36.64
60242;SHT30;46103;52.076;113.488;2023-11-21T08:32:02;-2.44;36.58
60242;SHT30;46103;52.076;113.488;2023-11-21T08:35:07;-2.46;36.68
60242;SHT30;46103;52.076;113.488;2023-11-21T08:38:13;-2.44;37.12
60242;SHT30;46103;52.076;113.488;2023-11-21T08:41:17;-2.42;36.90
60242;SHT30;46103;52.076;113.488;2023-11-21T08:44:21;-2.46;36.92
60242;SHT30;46103;52.076;113.488;2023-11-21T08:47:27;-2.46;37.06
60242;SHT30;46103;52.076;113.488;2023-11-21T08:50:32;-2.44;37.52
60242;SHT30;46103;52.076;113.488;2023-11-21T08:53:38;-2.36;37.39
60242;SHT30;46103;52.076;113.488;2023-11-21T08:56:44;-2.38;36.80
60242;SHT30;46103;52.076;113.488;2023-11-21T08:59:52;-2.41;37.12
60242;SHT30;46103;52.076;113.488;2023-11-21T09:03:01;-2.41;37.13
60242;SHT30;46103;52.076;113.488;2023-11-21T09:06:09;-2.46;37.40
60242;SHT30;46103;52.076;113.488;2023-11-21T09:09:19;-2.52;37.81
60242;SHT30;46103;52.076;113.488;2023-11-21T09:12:27;-2.52;37.62
60242;SHT30;46103;52.076;113.488;2023-11-21T09:15:31;-2.57;37.71
60242;SHT30;46103;52.076;113.488;2023-11-21T09:18:35;-2.52;38.11
60242;SHT30;46103;52.076;113.488;2023-11-21T09:21:40;-2.48;37.89
60242;SHT30;46103;52.076;113.488;2023-11-21T09:24:44;-2.41;38.93
60242;SHT30;46103;52.076;113.488;2023-11-21T09:27:48;-2.49;37.67
60242;SHT30;46103;52.076;113.488;2023-11-21T09:30:53;-2.49;39.10
60242;SHT30;46103;52.076;113.488;2023-11-21T09:33:57;-2.56;38.02
60242;SHT30;46103;52.076;113.488;2023-11-21T09:37:01;-2.56;37.91
60242;SHT30;46103;52.076;113.488;2023-11-21T09:40:11;-2.50;39.08
60242;SHT30;46103;52.076;113.488;2023-11-21T09:43:23;-2.53;37.92
60242;SHT30;46103;52.076;113.488;2023-11-21T09:46:35;-2.65;37.92
60242;SHT30;46103;52.076;113.488;2023-11-21T09:49:47;-2.67;38.32
60242;SHT30;46103;52.076;113.488;2023-11-21T09:56:42;-2.81;38.54
60242;SHT30;46103;52.076;113.488;2023-11-21T10:00:24;-2.83;38.49
60242;SHT30;46103;52.076;113.488;2023-11-21T10:03:30;-2.86;39.10
60242;SHT30;46103;52.076;113.488;2023-11-21T10:06:35;-2.88;39.52
60242;SHT30;46103;52.076;113.488;2023-11-21T10:09:53;-2.91;39.97
60242;SHT30;46103;52.076;113.488;2023-11-21T10:12:57;-2.87;40.55
60242;SHT30;46103;52.076;113.488;2023-11-21T10:16:07;-2.93;41.13
60242;SHT30;46103;52.076;113.488;2023-11-21T10:19:23;-2.97;40.17
60242;SHT30;46103;52.076;113.488;2023-11-21T10:22:30;-2.97;40.35
60242;SHT30;46103;52.076;113.488;2023-11-21T10:25:34;-2.94;40.17
60242;SHT30;46103;52.076;113.488;2023-11-21T10:28:39;-3.04;40.34
60242;SHT30;46103;52.076;113.488;2023-11-21T10:31:51;-3.11;42.21
60242;SHT30;46103;52.076;113.488;2023-11-21T10:35:01;-3.34;42.53
60242;SHT30;46103;52.076;113.488;2023-11-21T10:38:10;-3.49;43.23
60242;SHT30;46103;52.076;113.488;2023-11-21T10:41:23;-3.62;43.09
60242;SHT30;46103;52.076;113.488;2023-11-21T10:44:30;-3.71;42.54
60242;SHT30;46103;52.076;113.488;2023-11-21T10:47:35;-3.77;42.73
60242;SHT30;46103;52.076;113.488;2023-11-21T10:50:40;-3.87;42.44
60242;SHT30;46103;52.076;113.488;2023-11-21T10:53:44;-3.97;43.80
60242;SHT30;46103;52.076;113.488;2023-11-21T10:56:56;-4.01;42.64
60242;SHT30;46103;52.076;113.488;2023-11-21T11:00:00;-4.07;42.96
60242;SHT30;46103;52.076;113.488;2023-11-21T11:03:10;-4.07;43.65
60242;SHT30;46103;52.076;113.488;2023-11-21T11:06:24;-4.17;42.91
60242;SHT30;46103;52.076;113.488;2023-11-21T11:09:35;-4.15;43.25
60242;SHT30;46103;52.076;113.488;2023-11-21T11:12:41;-4.19;43.59
60242;SHT30;46103;52.076;113.488;2023-11-21T11:15:58;-4.26;43.09
60242;SHT30;46103;52.076;113.488;2023-11-21T11:19:05;-4.30;42.30
60242;SHT30;46103;52.076;113.488;2023-11-21T11:22:37;-4.33;42.95
60242;SHT30;46103;52.076;113.488;2023-11-21T11:29:34;-4.39;44.24
60242;SHT30;46103;52.076;113.488;2023-11-21T11:36:17;-4.42;45.01
60242;SHT30;46103;52.076;113.488;2023-11-21T11:39:38;-4.53;46.50
60242;SHT30;46103;52.076;113.488;2023-11-21T11:43:02;-4.59;45.65
60242;SHT30;46103;52.076;113.488;2023-11-21T11:46:06;-4.62;46.66
60242;SHT30;46103;52.076;113.488;2023-11-21T11:49:24;-4.56;46.34
60242;SHT30;46103;52.076;113.488;2023-11-21T11:52:35;-4.59;46.35
60242;SHT30;46103;52.076;113.488;2023-11-21T11:55:41;-4.56;46.28
60242;SHT30;46103;52.076;113.488;2023-11-21T11:58:50;-4.60;45.98
60242;SHT30;46103;52.076;113.488;2023-11-21T12:01:56;-4.56;45.77
60242;SHT30;46103;52.076;113.488;2023-11-21T12:05:13;-4.52;46.27
60242;SHT30;46103;52.076;113.488;2023-11-21T12:08:18;-4.60;46.60
60242;SHT30;46103;52.076;113.488;2023-11-21T12:11:30;-4.59;46.90
60242;SHT30;46103;52.076;113.488;2023-11-21T12:14:36;-4.66;46.54
60242;SHT30;46103;52.076;113.488;2023-11-21T12:17:45;-4.69;47.01
60242;SHT30;46103;52.076;113.488;2023-11-21T12:20:54;-4.70;46.85
60242;SHT30;46103;52.076;113.488;2023-11-21T12:24:17;-4.74;47.38
60242;SHT30;46103;52.076;113.488;2023-11-21T12:27:35;-4.74;47.66
60242;SHT30;46103;52.076;113.488;2023-11-21T12:30:52;-4.72;47.23
60242;SHT30;46103;52.076;113.488;2023-11-21T12:34:09;-4.73;47.01
60242;SHT30;46103;52.076;113.488;2023-11-21T12:37:14;-4.76;47.46
60242;SHT30;46103;52.076;113.488;2023-11-21T12:40:19;-4.77;47.57
60242;SHT30;46103;52.076;113.488;2023-11-21T12:43:45;-4.70;48.12
60242;SHT30;46103;52.076;113.488;2023-11-21T12:47:19;-4.76;48.22
60242;SHT30;46103;52.076;113.488;2023-11-21T12:50:27;-4.77;48.63
60242;SHT30;46103;52.076;113.488;2023-11-21T12:53:39;-4.88;48.30
60242;SHT30;46103;52.076;113.488;2023-11-21T12:56:45;-4.95;48.57
60242;SHT30;46103;52.076;113.488;2023-11-21T13:00:06;-5.05;48.88
60242;SHT30;46103;52.076;113.488;2023-11-21T13:03:29;-5.22;49.16
60242;SHT30;46103;52.076;113.488;2023-11-21T13:06:40;-5.32;49.35
60242;SHT30;46103;52.076;113.488;2023-11-21T13:09:45;-5.39;49.16
60242;SHT30;46103;52.076;113.488;2023-11-21T13:12:51;-5.42;49.16
60242;SHT30;46103;52.076;113.488;2023-11-21T13:16:02;-5.40;49.01
60242;SHT30;46103;52.076;113.488;2023-11-21T13:53:48;-5.52;49.86
60242;SHT30;46103;52.076;113.488;2023-11-21T14:02:44;-5.50;50.71
60242;SHT30;46103;52.076;113.488;2023-11-21T14:05:55;-5.53;50.77
60242;SHT30;46103;52.076;113.488;2023-11-21T14:09:29;-5.59;50.86
60242;SHT30;46103;52.076;113.488;2023-11-21T14:13:01;-5.59;50.57
60242;SHT30;46103;52.076;113.488;2023-11-21T14:16:05;-5.64;51.84
60242;SHT30;46103;52.076;113.488;2023-11-21T14:19:10;-5.67;51.80
60242;SHT30;46103;52.076;113.488;2023-11-21T14:22:33;-5.67;51.89
60242;SHT30;46103;52.076;113.488;2023-11-21T14:25:40;-5.64;51.93
60242;SHT30;46103;52.076;113.488;2023-11-21T14:28:45;-5.67;52.09
60242;SHT30;46103;52.076;113.488;2023-11-21T14:31:50;-5.67;51.99
60242;SHT30;46103;52.076;113.488;2023-11-21T14:34:59;-5.66;52.02
60242;SHT30;46103;52.076;113.488;2023-11-21T14:38:26;-5.67;51.98
60242;SHT30;46103;52.076;113.488;2023-11-21T14:41:31;-5.79;51.87
60242;SHT30;46103;52.076;113.488;2023-11-21T14:44:36;-5.79;52.16
60242;SHT30;46103;52.076;113.488;2023-11-21T14:47:58;-5.90;52.31
60242;SHT30;46103;52.076;113.488;2023-11-21T14:51:22;-5.98;52.04
60242;SHT30;46103;52.076;113.488;2023-11-21T14:54:54;-6.07;52.27
60242;SHT30;46103;52.076;113.488;2023-11-21T14:58:31;-6.11;51.81
60242;SHT30;46103;52.076;113.488;2023-11-21T15:01:37;-6.15;52.27
60242;SHT30;46103;52.076;113.488;2023-11-21T15:05:02;-6.21;52.52
60242;SHT30;46103;52.076;113.488;2023-11-21T15:08:10;-6.22;52.70
60242;SHT30;46103;52.076;113.488;2023-11-21T15:11:27;-6.19;52.62
60242;SHT30;46103;52.076;113.488;2023-11-21T15:14:49;-6.19;52.99
60242;SHT30;46103;52.076;113.488;2023-11-21T15:18:03;-6.17;52.97
60242;SHT30;46103;52.076;113.488;2023-11-21T15:21:14;-6.26;52.61
60242;SHT30;46103;52.076;113.488;2023-11-21T15:24:24;-6.28;53.11
60242;SHT30;46103;52.076;113.488;2023-11-21T15:51:54;-6.30;50.47
60242;SHT30;46103;52.076;113.488;2023-11-21T15:55:14;-6.32;49.13
60242;SHT30;46103;52.076;113.488;2023-11-21T15:58:22;-6.38;48.79
60242;SHT30;46103;52.076;113.488;2023-11-21T16:01:31;-6.38;48.77
60242;SHT30;46103;52.076;113.488;2023-11-21T16:04:40;-6.39;48.83
60242;SHT30;46103;52.076;113.488;2023-11-21T16:07:49;-6.43;49.06
60242;SHT30;46103;52.076;113.488;2023-11-21T16:10:58;-6.42;48.53
60242;SHT30;46103;52.076;113.488;2023-11-21T16:14:06;-6.42;48.85
60242;SHT30;46103;52.076;113.488;2023-11-21T16:17:16;-6.42;48.51
60242;SHT30;46103;52.076;113.488;2023-11-21T16:20:29;-6.38;48.39
60242;SHT30;46103;52.076;113.488;2023-11-21T16:23:48;-6.39;48.82
60242;SHT30;46103;52.076;113.488;2023-11-21T16:26:54;-6.35;49.47
60242;SHT30;46103;52.076;113.488;2023-11-21T16:30:05;-6.39;50.22
60242;SHT30;46103;52.076;113.488;2023-11-21T16:33:17;-6.42;49.64
60242;SHT30;46103;52.076;113.488;2023-11-21T16:36:30;-6.45;48.90
60242;SHT30;46103;52.076;113.488;2023-11-21T16:39:40;-6.49;49.71
60242;SHT30;46103;52.076;113.488;2023-11-21T16:42:51;-6.59;52.54
60242;SHT30;46103;52.076;113.488;2023-11-21T16:45:57;-6.70;53.64
60242;SHT30;46103;52.076;113.488;2023-11-21T16:49:06;-6.81;54.33
60242;SHT30;46103;52.076;113.488;2023-11-21T16:52:13;-6.95;54.65
60242;SHT30;46103;52.076;113.488;2023-11-21T16:55:20;-7.07;54.67
60242;SHT30;46103;52.076;113.488;2023-11-21T16:58:27;-7.22;54.40
60242;SHT30;46103;52.076;113.488;2023-11-21T17:01:36;-7.32;54.75
60242;SHT30;46103;52.076;113.488;2023-11-21T17:04:44;-7.39;55.07
60242;SHT30;46103;52.076;113.488;2023-11-21T17:07:59;-7.50;55.19
60242;SHT30;46103;52.076;113.488;2023-11-21T17:11:10;-7.67;55.33
60242;SHT30;46103;52.076;113.488;2023-11-21T17:14:18;-7.93;56.01
60242;SHT30;46103;52.076;113.488;2023-11-21T17:17:24;-8.02;56.31
60242;SHT30;46103;52.076;113.488;2023-11-21T17:20:34;-8.11;56.63
60242;SHT30;46103;52.076;113.488;2023-11-21T17:23:43;-8.15;56.80
60242;SHT30;46103;52.076;113.488;2023-11-21T17:26:50;-8.24;56.79
60242;SHT30;46103;52.076;113.488;2023-11-21T17:29:59;-8.46;57.48
60242;SHT30;46103;52.076;113.488;2023-11-21T17:33:05;-8.64;57.68
60242;SHT30;46103;52.076;113.488;2023-11-21T17:36:12;-8.66;57.84
60242;SHT30;46103;52.076;113.488;2023-11-21T17:39:21;-8.60;57.07
60242;SHT30;46103;52.076;113.488;2023-11-21T17:42:31;-8.49;57.27
60242;SHT30;46103;52.076;113.488;2023-11-21T17:45:40;-8.40;57.54
60242;SHT30;46103;52.076;113.488;2023-11-21T17:48:48;-8.33;57.49
60242;SHT30;46103;52.076;113.488;2023-11-21T17:51:56;-8.30;57.44
60242;SHT30;46103;52.076;113.488;2023-11-21T17:55:02;-8.29;57.82
60242;SHT30;46103;52.076;113.488;2023-11-21T17:58:13;-8.22;57.78
60242;SHT30;46103;52.076;113.488;2023-11-21T18:01:23;-8.21;57.81
60242;SHT30;46103;52.076;113.488;2023-11-21T18:04:40;-8.18;57.69
60242;SHT30;46103;52.076;113.488;2023-11-21T18:07:50;-8.09;57.78
60242;SHT30;46103;52.076;113.488;2023-11-21T18:10:59;-8.01;57.87
60242;SHT30;46103;52.076;113.488;2023-11-21T18:14:06;-7.98;57.39
60242;SHT30;46103;52.076;113.488;2023-11-21T18:17:18;-7.95;57.11
60242;SHT30;46103;52.076;113.488;2023-11-21T18:20:39;-7.99;56.83
60242;SHT30;46103;52.076;113.488;2023-11-21T18:23:48;-7.99;56.50
60242;SHT30;46103;52.076;113.488;2023-11-21T18:26:55;-7.98;56.53
60242;SHT30;46103;52.076;113.488;2023-11-21T18:30:06;-7.97;56.20
60242;SHT30;46103;52.076;113.488;2023-11-21T18:33:17;-8.05;55.94
60242;SHT30;46103;52.076;113.488;2023-11-21T18:36:29;-8.14;55.22
60242;SHT30;46103;52.076;113.488;2023-11-21T18:39:36;-8.15;55.09
60242;SHT30;46103;52.076;113.488;2023-11-21T18:42:44;-8.22;54.94
60242;SHT30;46103;52.076;113.488;2023-11-21T18:46:06;-8.33;54.86
60242;SHT30;46103;52.076;113.488;2023-11-21T18:49:17;-8.45;55.51
60242;SHT30;46103;52.076;113.488;2023-11-21T18:52:27;-8.56;55.19
60242;SHT30;46103;52.076;113.488;2023-11-21T18:55:38;-8.63;55.13
60242;SHT30;46103;52.076;113.488;2023-11-21T18:58:50;-8.91;55.26
60242;SHT30;46103;52.076;113.488;2023-11-21T19:02:03;-9.15;55.83
60242;SHT30;46103;52.076;113.488;2023-11-21T19:05:20;-9.16;56.26
60242;SHT30;46103;52.076;113.488;2023-11-21T19:08:28;-9.15;56.22
60242;SHT30;46103;52.076;113.488;2023-11-21T19:11:39;-9.16;56.17
60242;SHT30;46103;52.076;113.488;2023-11-21T19:14:46;-9.23;56.12
60242;SHT30;46103;52.076;113.488;2023-11-21T19:18:09;-9.21;56.02
60242;SHT30;46103;52.076;113.488;2023-11-21T19:21:17;-9.12;55.89
60242;SHT30;46103;52.076;113.488;2023-11-21T19:24:39;-9.09;55.84
60242;SHT30;46103;52.076;113.488;2023-11-21T19:27:48;-9.02;55.72
60242;SHT30;46103;52.076;113.488;2023-11-21T19:30:59;-9.04;55.73
60242;SHT30;46103;52.076;113.488;2023-11-21T19:34:13;-8.97;55.66
60242;SHT30;46103;52.076;113.488;2023-11-21T19:37:39;-8.90;55.57
60242;SHT30;46103;52.076;113.488;2023-11-21T19:40:50;-8.84;55.62
60242;SHT30;46103;52.076;113.488;2023-11-21T19:44:02;-8.80;55.74
60242;SHT30;46103;52.076;113.488;2023-11-21T19:47:14;-8.74;55.81
60242;SHT30;46103;52.076;113.488;2023-11-21T19:50:27;-8.67;55.61
60242;SHT30;46103;52.076;113.488;2023-11-21T19:53:46;-8.64;56.08
60242;SHT30;46103;52.076;113.488;2023-11-21T19:56:56;-8.64;56.12
60242;SHT30;46103;52.076;113.488;2023-11-21T20:00:13;-8.61;56.55
60242;SHT30;46103;52.076;113.488;2023-11-21T20:03:27;-8.56;56.49
60242;SHT30;46103;52.076;113.488;2023-11-21T20:06:39;-8.47;56.41
60242;SHT30;46103;52.076;113.488;2023-11-21T20:10:01;-8.42;56.36
60242;SHT30;46103;52.076;113.488;2023-11-21T20:13:14;-8.32;56.34
60242;SHT30;46103;52.076;113.488;2023-11-21T20:16:26;-8.21;55.95
60242;SHT30;46103;52.076;113.488;2023-11-21T20:19:33;-8.15;55.38
60242;SHT30;46103;52.076;113.488;2023-11-21T20:22:38;-8.09;55.06
60242;SHT30;46103;52.076;113.488;2023-11-21T20:25:57;-8.04;55.05
60242;SHT30;46103;52.076;113.488;2023-11-21T20:29:15;-7.98;55.38
60242;SHT30;46103;52.076;113.488;2023-11-21T20:32:23;-8.01;55.29
60242;SHT30;46103;52.076;113.488;2023-11-21T20:35:30;-7.99;55.21
60242;SHT30;46103;52.076;113.488;2023-11-21T20:38:50;-7.98;55.11
60242;SHT30;46103;52.076;113.488;2023-11-21T20:42:00;-8.01;54.95
60242;SHT30;46103;52.076;113.488;2023-11-21T20:45:05;-8.07;55.59
60242;SHT30;46103;52.076;113.488;2023-11-21T20:48:10;-8.07;55.83